<?xml version="1.0" encoding="UTF-8" standalone="no" ?>
<gpx xmlns="http://www.topografix.com/GPX/1/1" xmlns:xsi="http://www.w3.org/2001/XMLSchema-instance" xsi:schemaLocation="http://www.topografix.com/GPX/1/1 http://www.topografix.com/GPX/1/1/gpx.xsd" version="1.1" creator="VisuGPX - https://www.visugpx.com">
  <metadata>
    <name>Pic d'Hautacam depuis la station.</name>
  </metadata>
  <trk>
    <name><![CDATA[Pic d'Hautacam depuis la station.]]></name>
    <trkseg>
      <trkpt lat="42.97491" lon="-0.01022">
        <ele>1522</ele>
        <time>2019-11-17T09:58:49+01:00</time>
      </trkpt>
      <trkpt lat="42.9755" lon="-0.01067">
        <ele>1514</ele>
        <time>2019-11-17T09:58:54+01:00</time>
      </trkpt>
      <trkpt lat="42.97571" lon="-0.00904">
        <ele>1516</ele>
        <time>2019-11-17T09:58:59+01:00</time>
      </trkpt>
      <trkpt lat="42.97546" lon="-0.00818">
        <ele>1522</ele>
        <time>2019-11-17T09:59:04+01:00</time>
      </trkpt>
      <trkpt lat="42.97528" lon="-0.00765">
        <ele>1531</ele>
        <time>2019-11-17T09:59:09+01:00</time>
      </trkpt>
      <trkpt lat="42.97575" lon="-0.00636">
        <ele>1552</ele>
        <time>2019-11-17T09:59:14+01:00</time>
      </trkpt>
      <trkpt lat="42.97641" lon="-0.00623">
        <ele>1555</ele>
        <time>2019-11-17T09:59:19+01:00</time>
      </trkpt>
      <trkpt lat="42.97678" lon="-0.0061">
        <ele>1550</ele>
        <time>2019-11-17T09:59:24+01:00</time>
      </trkpt>
      <trkpt lat="42.97736" lon="-0.00492">
        <ele>1560</ele>
        <time>2019-11-17T09:59:29+01:00</time>
      </trkpt>
      <trkpt lat="42.97863" lon="-0.00304">
        <ele>1569</ele>
        <time>2019-11-17T09:59:34+01:00</time>
      </trkpt>
      <trkpt lat="42.97892" lon="-0.00226">
        <ele>1581</ele>
        <time>2019-11-17T09:59:39+01:00</time>
      </trkpt>
      <trkpt lat="42.97972" lon="-0.00192">
        <ele>1590</ele>
        <time>2019-11-17T09:59:44+01:00</time>
      </trkpt>
      <trkpt lat="42.98132" lon="-0.00198">
        <ele>1602</ele>
        <time>2019-11-17T09:59:49+01:00</time>
      </trkpt>
      <trkpt lat="42.98182" lon="-0.00261">
        <ele>1601</ele>
        <time>2019-11-17T09:59:54+01:00</time>
      </trkpt>
      <trkpt lat="42.98294" lon="-0.0031">
        <ele>1604</ele>
        <time>2019-11-17T09:59:59+01:00</time>
      </trkpt>
      <trkpt lat="42.98403" lon="-0.00447">
        <ele>1589</ele>
        <time>2019-11-17T10:00:04+01:00</time>
      </trkpt>
      <trkpt lat="42.98421" lon="-0.00507">
        <ele>1591</ele>
        <time>2019-11-17T10:00:09+01:00</time>
      </trkpt>
      <trkpt lat="42.98527" lon="-0.00576">
        <ele>1602</ele>
        <time>2019-11-17T10:00:14+01:00</time>
      </trkpt>
      <trkpt lat="42.98593" lon="-0.00587">
        <ele>1603</ele>
        <time>2019-11-17T10:00:19+01:00</time>
      </trkpt>
      <trkpt lat="42.98666" lon="-0.00625">
        <ele>1600</ele>
        <time>2019-11-17T10:00:24+01:00</time>
      </trkpt>
      <trkpt lat="42.98747" lon="-0.00709">
        <ele>1590</ele>
        <time>2019-11-17T10:00:29+01:00</time>
      </trkpt>
      <trkpt lat="42.98827" lon="-0.00731">
        <ele>1594</ele>
        <time>2019-11-17T10:00:34+01:00</time>
      </trkpt>
      <trkpt lat="42.9894" lon="-0.00776">
        <ele>1598</ele>
        <time>2019-11-17T10:00:39+01:00</time>
      </trkpt>
      <trkpt lat="42.98995" lon="-0.00846">
        <ele>1619</ele>
        <time>2019-11-17T10:00:44+01:00</time>
      </trkpt>
      <trkpt lat="42.99177" lon="-0.00868">
        <ele>1644</ele>
        <time>2019-11-17T10:00:49+01:00</time>
      </trkpt>
      <trkpt lat="42.99377" lon="-0.00962">
        <ele>1669</ele>
        <time>2019-11-17T10:00:54+01:00</time>
      </trkpt>
      <trkpt lat="42.99482" lon="-0.01132">
        <ele>1668</ele>
        <time>2019-11-17T10:00:59+01:00</time>
      </trkpt>
      <trkpt lat="42.99497" lon="-0.0119">
        <ele>1669</ele>
        <time>2019-11-17T10:01:04+01:00</time>
      </trkpt>
      <trkpt lat="42.99552" lon="-0.01269">
        <ele>1681</ele>
        <time>2019-11-17T10:01:09+01:00</time>
      </trkpt>
      <trkpt lat="42.99589" lon="-0.01381">
        <ele>1676</ele>
        <time>2019-11-17T10:01:14+01:00</time>
      </trkpt>
      <trkpt lat="42.99738" lon="-0.01409">
        <ele>1675</ele>
        <time>2019-11-17T10:01:19+01:00</time>
      </trkpt>
      <trkpt lat="42.99847" lon="-0.01383">
        <ele>1683</ele>
        <time>2019-11-17T10:01:24+01:00</time>
      </trkpt>
      <trkpt lat="42.99924" lon="-0.01381">
        <ele>1699</ele>
        <time>2019-11-17T10:01:29+01:00</time>
      </trkpt>
      <trkpt lat="42.9997" lon="-0.01396">
        <ele>1706</ele>
        <time>2019-11-17T10:01:34+01:00</time>
      </trkpt>
      <trkpt lat="43.00033" lon="-0.01404">
        <ele>1708</ele>
        <time>2019-11-17T10:01:39+01:00</time>
      </trkpt>
      <trkpt lat="43.0011" lon="-0.01432">
        <ele>1714</ele>
        <time>2019-11-17T10:01:44+01:00</time>
      </trkpt>
      <trkpt lat="43.00163" lon="-0.0147">
        <ele>1715</ele>
        <time>2019-11-17T10:01:49+01:00</time>
      </trkpt>
      <trkpt lat="43.00244" lon="-0.01465">
        <ele>1740</ele>
        <time>2019-11-17T10:01:54+01:00</time>
      </trkpt>
      <trkpt lat="43.0015" lon="-0.01461">
        <ele>1713</ele>
        <time>2019-11-17T10:01:59+01:00</time>
      </trkpt>
      <trkpt lat="43.00062" lon="-0.01401">
        <ele>1712</ele>
        <time>2019-11-17T10:02:04+01:00</time>
      </trkpt>
      <trkpt lat="42.99902" lon="-0.01397">
        <ele>1691</ele>
        <time>2019-11-17T10:02:09+01:00</time>
      </trkpt>
      <trkpt lat="42.99736" lon="-0.01388">
        <ele>1682</ele>
        <time>2019-11-17T10:02:14+01:00</time>
      </trkpt>
      <trkpt lat="42.99604" lon="-0.01341">
        <ele>1688</ele>
        <time>2019-11-17T10:02:19+01:00</time>
      </trkpt>
      <trkpt lat="42.99507" lon="-0.01174">
        <ele>1670</ele>
        <time>2019-11-17T10:02:24+01:00</time>
      </trkpt>
      <trkpt lat="42.99378" lon="-0.01174">
        <ele>1681</ele>
        <time>2019-11-17T10:02:29+01:00</time>
      </trkpt>
      <trkpt lat="42.99281" lon="-0.01182">
        <ele>1690</ele>
        <time>2019-11-17T10:02:34+01:00</time>
      </trkpt>
      <trkpt lat="42.9913" lon="-0.01122">
        <ele>1656</ele>
        <time>2019-11-17T10:02:39+01:00</time>
      </trkpt>
      <trkpt lat="42.99064" lon="-0.01015">
        <ele>1645</ele>
        <time>2019-11-17T10:02:44+01:00</time>
      </trkpt>
      <trkpt lat="42.98898" lon="-0.00869">
        <ele>1612</ele>
        <time>2019-11-17T10:02:49+01:00</time>
      </trkpt>
      <trkpt lat="42.98782" lon="-0.00736">
        <ele>1594</ele>
        <time>2019-11-17T10:02:54+01:00</time>
      </trkpt>
      <trkpt lat="42.98433" lon="-0.00508">
        <ele>1591</ele>
        <time>2019-11-17T10:02:59+01:00</time>
      </trkpt>
      <trkpt lat="42.98251" lon="-0.00277">
        <ele>1606</ele>
        <time>2019-11-17T10:03:04+01:00</time>
      </trkpt>
      <trkpt lat="42.98147" lon="-0.00221">
        <ele>1600</ele>
        <time>2019-11-17T10:03:09+01:00</time>
      </trkpt>
      <trkpt lat="42.97974" lon="-0.00204">
        <ele>1587</ele>
        <time>2019-11-17T10:03:14+01:00</time>
      </trkpt>
      <trkpt lat="42.97861" lon="-0.00255">
        <ele>1580</ele>
        <time>2019-11-17T10:03:19+01:00</time>
      </trkpt>
      <trkpt lat="42.97676" lon="-0.00641">
        <ele>1543</ele>
        <time>2019-11-17T10:03:24+01:00</time>
      </trkpt>
      <trkpt lat="42.97576" lon="-0.00663">
        <ele>1543</ele>
        <time>2019-11-17T10:03:29+01:00</time>
      </trkpt>
      <trkpt lat="42.97525" lon="-0.00766">
        <ele>1532</ele>
        <time>2019-11-17T10:03:34+01:00</time>
      </trkpt>
      <trkpt lat="42.97576" lon="-0.00912">
        <ele>1514</ele>
        <time>2019-11-17T10:03:39+01:00</time>
      </trkpt>
      <trkpt lat="42.97547" lon="-0.01079">
        <ele>1513</ele>
        <time>2019-11-17T10:03:44+01:00</time>
      </trkpt>
      <trkpt lat="42.97478" lon="-0.01006">
        <ele>1524</ele>
        <time>2019-11-17T10:03:49+01:00</time>
      </trkpt>
    </trkseg>
  </trk>
</gpx>